Heinz Schepers — V2OM7 — position and weather

sailwx.info

Track history (hours):
 
Tides and Currents Weather Stations Pressure Air Temp Water Temp Dewpoint Dewpoint Depression Visibility Wind Speed Wind Dir Waves Ship Positions

Heinz Schepers

Last reported at 2015-Apr-18 16:24 UTC. Time now 2015-Apr-19 01:11 UTC.
Position N 37°26' E 026°45'.

Length 101 m; draft 5.3 m.

Type: Cargo ship. MMSI: 304596000.

Date/timePositionNaut miles runAvg speedWind from/ knotsBaromVisibWave heightAir tempDewpointWater temp
2015-Apr-18 16:24N 37°26' E 026°45'6712.8
2015-Apr-18 11:10N 36°33' E 027°37'914.9
2015-Apr-18 10:33N 36°30' E 027°48'24913.6
2015-Apr-17 16:17N 34°40' E 032°22'912.5
2015-Apr-17 15:34N 34°37' E 032°32'1212.3
2015-Apr-17 14:34N 34°34' E 032°47'1211.6
2015-Apr-17 13:34N 34°32' E 033°01'7 7.3
2015-Apr-17 12:34N 34°39' E 033°01'0 0.0
2015-Apr-17 11:33N 34°39' E 033°01'0 0.0
2015-Apr-17 10:33N 34°39' E 033°01'0 0.0
2015-Apr-17 09:33N 34°39' E 033°01'0 0.0
2015-Apr-17 08:33N 34°39' E 033°01'0 0.0
2015-Apr-17 07:33N 34°39' E 033°01'0 0.0
2015-Apr-17 06:33N 34°39' E 033°01'0 0.0
2015-Apr-17 05:33N 34°39' E 033°01'0 0.0
2015-Apr-17 04:34N 34°39' E 033°01'3 3.1
2015-Apr-17 03:34N 34°40' E 033°04'0 0.1
2015-Apr-17 02:34N 34°40' E 033°05'0 0.0
2015-Apr-17 01:09N 34°40' E 033°05'0 0.1
2015-Apr-17 00:24N 34°40' E 033°05'0 0.0
2015-Apr-16 23:33N 34°40' E 033°05'0 0.1
2015-Apr-16 22:33N 34°40' E 033°05'0 0.0
2015-Apr-16 21:21N 34°40' E 033°05'0 0.0
2015-Apr-16 20:33N 34°40' E 033°05'6 6.0
2015-Apr-16 19:34N 34°34' E 033°04'1212.1
2015-Apr-16 18:33N 34°33' E 032°49'1413.7
2015-Apr-16 17:34N 34°37' E 032°33'30613.3
2015-Apr-15 18:30N 37°04' E 027°02'4314.2
2015-Apr-15 15:30N 37°40' E 026°33'  
2015-Apr-12 19:28N 38°33' E 024°44'1313.7
2015-Apr-12 18:30N 38°26' E 024°59'7113.4
2015-Apr-12 13:11N 37°49' E 026°16'1014.9
2015-Apr-12 12:33N 37°44' E 026°26'1311.8
2015-Apr-12 11:27N 37°35' E 026°38'1412.8
2015-Apr-12 10:23N 37°24' E 026°48'2612.9
2015-Apr-12 08:21N 37°02' E 027°05'29411.7
2015-Apr-11 07:19N 34°40' E 032°22'1013.1
2015-Apr-11 06:33N 34°37' E 032°34'1313.3
2015-Apr-11 05:33N 34°33' E 032°49'1212.5
2015-Apr-11 04:33N 34°33' E 033°04'8 7.5
2015-Apr-11 03:31N 34°41' E 033°04'0 0.0
2015-Apr-11 02:31N 34°41' E 033°04'0 0.0
2015-Apr-11 01:31N 34°41' E 033°04'0 0.0
2015-Apr-11 00:31N 34°41' E 033°04'0 0.1
2015-Apr-10 23:31N 34°41' E 033°04'0 0.0
2015-Apr-10 22:31N 34°41' E 033°04'0 0.1
2015-Apr-10 21:31N 34°41' E 033°04'0 0.0
2015-Apr-10 20:31N 34°41' E 033°04'0 0.0
2015-Apr-10 19:31N 34°41' E 033°04'0 0.0
2015-Apr-10 18:31N 34°41' E 033°04'0 0.1
2015-Apr-10 17:31N 34°41' E 033°04'0 0.0
2015-Apr-10 16:31N 34°41' E 033°04'0 0.0
2015-Apr-10 15:31N 34°41' E 033°04'0 0.0
2015-Apr-10 14:31N 34°41' E 033°04'0 0.0
2015-Apr-10 13:31N 34°41' E 033°04'0 0.0
2015-Apr-10 12:31N 34°41' E 033°04'0 0.0
2015-Apr-10 11:31N 34°41' E 033°04'0 0.0
2015-Apr-10 10:31N 34°41' E 033°04'0 0.1
2015-Apr-10 09:31N 34°41' E 033°04'0 0.1
2015-Apr-10 08:31N 34°41' E 033°04'0 0.1
2015-Apr-10 07:31N 34°41' E 033°04'0 0.0
2015-Apr-10 06:31N 34°41' E 033°04'0 0.4
2015-Apr-10 05:33N 34°40' E 033°04'3 2.6
2015-Apr-10 04:31N 34°39' E 033°01'0 0.0
2015-Apr-10 03:31N 34°39' E 033°01'0 0.0
2015-Apr-10 02:31N 34°39' E 033°01'0 0.0
2015-Apr-10 01:31N 34°39' E 033°01'0 0.0
2015-Apr-10 00:31N 34°39' E 033°01'0 0.0
2015-Apr-09 23:31N 34°39' E 033°01'0 0.0
2015-Apr-09 22:31N 34°39' E 033°01'0 0.0
2015-Apr-09 21:31N 34°39' E 033°01'0 0.0
2015-Apr-09 20:34N 34°39' E 033°01'0 0.0
2015-Apr-09 19:33N 34°39' E 033°01'0 0.0
2015-Apr-09 18:33N 34°39' E 033°01'0 0.0
2015-Apr-09 17:33N 34°39' E 033°01'0 0.0
2015-Apr-09 16:33N 34°39' E 033°01'0 0.0
2015-Apr-09 15:33N 34°39' E 033°01'0 0.0
2015-Apr-09 14:33N 34°39' E 033°01'0 0.0
2015-Apr-09 13:33N 34°39' E 033°01'0 0.0
2015-Apr-09 12:33N 34°39' E 033°01'0 0.0
2015-Apr-09 11:33N 34°39' E 033°01'0 0.0
2015-Apr-09 10:33N 34°39' E 033°01'0 0.0
2015-Apr-09 09:33N 34°39' E 033°01'0 0.3
2015-Apr-09 08:34N 34°39' E 033°02'4 3.9
2015-Apr-09 07:34N 34°38' E 033°06'1 1.0
2015-Apr-09 06:34N 34°38' E 033°05'1 1.4
2015-Apr-09 05:33N 34°37' E 033°05'2 1.6
2015-Apr-09 04:34N 34°36' E 033°04'1010.0
2015-Apr-09 03:33N 34°32' E 032°53'1414.1
2015-Apr-09 02:33N 34°36' E 032°36'  
Track history (hours):
 
Tides and Currents Weather Stations Pressure Air Temp Water Temp Dewpoint Dewpoint Depression Visibility Wind Speed Wind Dir Waves Ship Positions

Heinz Schepers

Last reported at 2015-Apr-18 16:24 UTC. Time now 2015-Apr-19 01:11 UTC.
Position N 37°26' E 026°45'.

Length 101 m; draft 5.3 m.

Type: Cargo ship. MMSI: 304596000.

Date/timePositionNaut miles runAvg speedWind from/ knotsBaromVisibWave heightAir tempDewpointWater temp
2015-Apr-18 16:24N 37°26' E 026°45'6712.8
2015-Apr-18 11:10N 36°33' E 027°37'914.9
2015-Apr-18 10:33N 36°30' E 027°48'24913.6
2015-Apr-17 16:17N 34°40' E 032°22'912.5
2015-Apr-17 15:34N 34°37' E 032°32'1212.3
2015-Apr-17 14:34N 34°34' E 032°47'1211.6
2015-Apr-17 13:34N 34°32' E 033°01'7 7.3
2015-Apr-17 12:34N 34°39' E 033°01'0 0.0
2015-Apr-17 11:33N 34°39' E 033°01'0 0.0
2015-Apr-17 10:33N 34°39' E 033°01'0 0.0
2015-Apr-17 09:33N 34°39' E 033°01'0 0.0
2015-Apr-17 08:33N 34°39' E 033°01'0 0.0
2015-Apr-17 07:33N 34°39' E 033°01'0 0.0
2015-Apr-17 06:33N 34°39' E 033°01'0 0.0
2015-Apr-17 05:33N 34°39' E 033°01'0 0.0
2015-Apr-17 04:34N 34°39' E 033°01'3 3.1
2015-Apr-17 03:34N 34°40' E 033°04'0 0.1
2015-Apr-17 02:34N 34°40' E 033°05'0 0.0
2015-Apr-17 01:09N 34°40' E 033°05'0 0.1
2015-Apr-17 00:24N 34°40' E 033°05'0 0.0
2015-Apr-16 23:33N 34°40' E 033°05'0 0.1
2015-Apr-16 22:33N 34°40' E 033°05'0 0.0
2015-Apr-16 21:21N 34°40' E 033°05'0 0.0
2015-Apr-16 20:33N 34°40' E 033°05'6 6.0
2015-Apr-16 19:34N 34°34' E 033°04'1212.1
2015-Apr-16 18:33N 34°33' E 032°49'1413.7
2015-Apr-16 17:34N 34°37' E 032°33'30613.3
2015-Apr-15 18:30N 37°04' E 027°02'4314.2
2015-Apr-15 15:30N 37°40' E 026°33'  
2015-Apr-12 19:28N 38°33' E 024°44'1313.7
2015-Apr-12 18:30N 38°26' E 024°59'7113.4
2015-Apr-12 13:11N 37°49' E 026°16'1014.9
2015-Apr-12 12:33N 37°44' E 026°26'1311.8
2015-Apr-12 11:27N 37°35' E 026°38'1412.8
2015-Apr-12 10:23N 37°24' E 026°48'2612.9
2015-Apr-12 08:21N 37°02' E 027°05'29411.7
2015-Apr-11 07:19N 34°40' E 032°22'1013.1
2015-Apr-11 06:33N 34°37' E 032°34'1313.3
2015-Apr-11 05:33N 34°33' E 032°49'1212.5
2015-Apr-11 04:33N 34°33' E 033°04'8 7.5
2015-Apr-11 03:31N 34°41' E 033°04'0 0.0
2015-Apr-11 02:31N 34°41' E 033°04'0 0.0
2015-Apr-11 01:31N 34°41' E 033°04'0 0.0
2015-Apr-11 00:31N 34°41' E 033°04'0 0.1
2015-Apr-10 23:31N 34°41' E 033°04'0 0.0
2015-Apr-10 22:31N 34°41' E 033°04'0 0.1
2015-Apr-10 21:31N 34°41' E 033°04'0 0.0
2015-Apr-10 20:31N 34°41' E 033°04'0 0.0
2015-Apr-10 19:31N 34°41' E 033°04'0 0.0
2015-Apr-10 18:31N 34°41' E 033°04'0 0.1
2015-Apr-10 17:31N 34°41' E 033°04'0 0.0
2015-Apr-10 16:31N 34°41' E 033°04'0 0.0
2015-Apr-10 15:31N 34°41' E 033°04'0 0.0
2015-Apr-10 14:31N 34°41' E 033°04'0 0.0
2015-Apr-10 13:31N 34°41' E 033°04'0 0.0
2015-Apr-10 12:31N 34°41' E 033°04'0 0.0
2015-Apr-10 11:31N 34°41' E 033°04'0 0.0
2015-Apr-10 10:31N 34°41' E 033°04'0 0.1
2015-Apr-10 09:31N 34°41' E 033°04'0 0.1
2015-Apr-10 08:31N 34°41' E 033°04'0 0.1
2015-Apr-10 07:31N 34°41' E 033°04'0 0.0
2015-Apr-10 06:31N 34°41' E 033°04'0 0.4
2015-Apr-10 05:33N 34°40' E 033°04'3 2.6
2015-Apr-10 04:31N 34°39' E 033°01'0 0.0
2015-Apr-10 03:31N 34°39' E 033°01'0 0.0
2015-Apr-10 02:31N 34°39' E 033°01'0 0.0
2015-Apr-10 01:31N 34°39' E 033°01'0 0.0
2015-Apr-10 00:31N 34°39' E 033°01'0 0.0
2015-Apr-09 23:31N 34°39' E 033°01'0 0.0
2015-Apr-09 22:31N 34°39' E 033°01'0 0.0
2015-Apr-09 21:31N 34°39' E 033°01'0 0.0
2015-Apr-09 20:34N 34°39' E 033°01'0 0.0
2015-Apr-09 19:33N 34°39' E 033°01'0 0.0
2015-Apr-09 18:33N 34°39' E 033°01'0 0.0
2015-Apr-09 17:33N 34°39' E 033°01'0 0.0
2015-Apr-09 16:33N 34°39' E 033°01'0 0.0
2015-Apr-09 15:33N 34°39' E 033°01'0 0.0
2015-Apr-09 14:33N 34°39' E 033°01'0 0.0
2015-Apr-09 13:33N 34°39' E 033°01'0 0.0
2015-Apr-09 12:33N 34°39' E 033°01'0 0.0
2015-Apr-09 11:33N 34°39' E 033°01'0 0.0
2015-Apr-09 10:33N 34°39' E 033°01'0 0.0
2015-Apr-09 09:33N 34°39' E 033°01'0 0.3
2015-Apr-09 08:34N 34°39' E 033°02'4 3.9
2015-Apr-09 07:34N 34°38' E 033°06'1 1.0
2015-Apr-09 06:34N 34°38' E 033°05'1 1.4
2015-Apr-09 05:33N 34°37' E 033°05'2 1.6
2015-Apr-09 04:34N 34°36' E 033°04'1010.0
2015-Apr-09 03:33N 34°32' E 032°53'1414.1
2015-Apr-09 02:33N 34°36' E 032°36'  

Dump ship's entire track history